Binefar, Spain
Current Conditions -  °F | °C
As of 1:00 AM on Sunday 26 Oct 2014 (Local Time) from LEHC Reporting Station
Clear Clear  
Wind Chill: 55°   Ceiling: Unl
Heat Index: 55°   Visibility: 6mi
Dew Point: 45°   Wind: 2mph
Humidity: 67%   Direction: 320°NW
Pressure: 30.18"   Gusts: NA
Location:  41.85°N, 0.29°E
Report Text: LEHC 252300Z AUTO 32002KT CAVOK 13/07 Q1022
Loading
Personal Weather Stations






























Interactive Weather Map
Tropical Storm Tracking
New forecast layout! Learn more

10-Day Weather Forecast

Advertisements
Track Severe Weather on mobile